createdAt,value
2019-05-18T00:00:41.569Z,11.25
2019-05-18T00:03:10.258Z,11.85
2019-05-18T00:05:39.527Z,11.38
2019-05-18T00:08:08.455Z,11.68
2019-05-18T00:10:37.506Z,13.05
2019-05-18T00:13:06.392Z,12.18
2019-05-18T00:15:35.146Z,13.00
2019-05-18T00:18:04.169Z,12.73
2019-05-18T00:20:32.909Z,13.43
2019-05-18T00:23:01.573Z,11.80
2019-05-18T00:25:30.258Z,13.18
2019-05-18T00:27:59.119Z,12.13
2019-05-18T00:30:28.072Z,13.05
2019-05-18T00:32:57.002Z,13.20
2019-05-18T00:35:26.287Z,12.88
2019-05-18T00:37:54.972Z,12.73
2019-05-18T00:40:23.639Z,12.78
2019-05-18T00:42:52.487Z,12.68
2019-05-18T00:45:21.223Z,13.33
2019-05-18T00:47:50.266Z,11.65
2019-05-18T00:50:19.174Z,13.90
2019-05-18T00:52:48.334Z,12.68
2019-05-18T00:55:17.229Z,12.60
2019-05-18T00:57:46.239Z,13.13
2019-05-18T01:00:16.708Z,13.90
2019-05-18T01:02:45.423Z,12.63
2019-05-18T01:05:14.272Z,12.05
2019-05-18T01:07:45.836Z,13.43
2019-05-18T01:10:14.590Z,13.50
2019-05-18T01:12:43.356Z,13.60
2019-05-18T01:15:12.966Z,13.53
2019-05-18T01:17:56.171Z,13.98
2019-05-18T01:20:12.668Z,14.18
2019-05-18T01:22:41.467Z,13.43
2019-05-18T01:25:10.482Z,14.05
2019-05-18T01:27:39.742Z,13.68
2019-05-18T01:30:09.407Z,13.68
2019-05-18T01:32:38.111Z,14.83
2019-05-18T01:35:07.742Z,13.18
2019-05-18T01:37:36.474Z,13.90
2019-05-18T01:40:05.403Z,13.43
2019-05-18T01:42:34.475Z,14.38
2019-05-18T01:45:15.719Z,12.05
2019-05-18T01:47:34.173Z,14.55
2019-05-18T01:50:03.068Z,14.00
2019-05-18T01:52:32.025Z,13.48
2019-05-18T01:55:00.808Z,14.58
2019-05-18T01:57:30.148Z,14.58
2019-05-18T01:59:58.911Z,14.77
2019-05-18T02:02:27.562Z,14.03
2019-05-18T02:04:56.585Z,15.08
2019-05-18T02:07:25.286Z,15.13
2019-05-18T02:09:54.467Z,15.13
2019-05-18T02:12:23.213Z,15.53
2019-05-18T02:14:51.957Z,16.35
2019-05-18T02:17:21.545Z,15.03
2019-05-18T02:19:50.319Z,16.17
2019-05-18T02:22:19.025Z,15.00
2019-05-18T02:24:47.782Z,15.55
2019-05-18T02:27:16.570Z,13.95
2019-05-18T02:29:45.881Z,15.98
2019-05-18T02:32:14.662Z,15.35
2019-05-18T02:34:43.704Z,16.55
2019-05-18T02:37:12.470Z,15.20
2019-05-18T02:39:41.295Z,15.00
2019-05-18T02:42:10.162Z,13.53
2019-05-18T02:44:39.043Z,16.37
2019-05-18T02:47:07.877Z,15.65
2019-05-18T02:49:37.564Z,14.30
2019-05-18T02:52:06.630Z,14.38
2019-05-18T02:54:35.988Z,18.70
2019-05-18T02:57:04.895Z,15.23
2019-05-18T02:59:33.615Z,17.45
2019-05-18T03:02:02.290Z,16.90
2019-05-18T03:04:31.401Z,16.30
2019-05-18T03:07:00.314Z,17.07
2019-05-18T03:09:29.164Z,18.75
2019-05-18T03:11:59.145Z,16.97
2019-05-18T03:14:27.909Z,16.63
2019-05-18T03:16:56.622Z,16.50
2019-05-18T03:19:25.463Z,16.77
2019-05-18T03:21:54.465Z,16.20
2019-05-18T03:24:23.432Z,15.83
2019-05-18T03:26:52.271Z,15.63
2019-05-18T03:29:21.409Z,15.32
2019-05-18T03:31:50.099Z,17.70
2019-05-18T03:34:20.010Z,17.23
2019-05-18T03:36:48.810Z,15.80
2019-05-18T03:39:17.484Z,17.25
2019-05-18T03:41:46.718Z,13.62
2019-05-18T03:44:15.606Z,16.65
2019-05-18T03:46:44.703Z,16.15
2019-05-18T03:49:26.338Z,16.35
2019-05-18T03:51:44.368Z,16.80
2019-05-18T03:54:13.655Z,16.80
2019-05-18T03:56:42.452Z,16.87
2019-05-18T03:59:11.399Z,17.00
2019-05-18T04:01:40.184Z,15.50
2019-05-18T04:04:08.983Z,15.08
2019-05-18T04:06:37.651Z,15.05
2019-05-18T04:09:06.711Z,16.73
2019-05-18T04:11:35.507Z,15.47
2019-05-18T04:14:08.451Z,15.20
2019-05-18T04:16:36.509Z,15.18
2019-05-18T04:19:05.277Z,16.57
2019-05-18T04:21:34.038Z,16.17
2019-05-18T04:24:02.986Z,16.50
2019-05-18T04:26:31.720Z,15.83
2019-05-18T04:29:00.776Z,16.27
2019-05-18T04:31:32.436Z,15.68
2019-05-18T04:34:00.372Z,16.67
2019-05-18T04:36:29.104Z,15.75
2019-05-18T04:38:57.853Z,15.32
2019-05-18T04:41:26.745Z,14.75
2019-05-18T04:43:55.923Z,15.25
2019-05-18T04:46:25.386Z,15.03
2019-05-18T04:48:54.302Z,16.25
2019-05-18T04:51:23.198Z,15.60
2019-05-18T04:53:52.156Z,15.58
2019-05-18T04:56:21.397Z,13.93
2019-05-18T04:58:50.086Z,14.00
2019-05-18T05:01:18.999Z,13.68
2019-05-18T05:03:48.867Z,15.98
2019-05-18T05:06:17.802Z,15.17
2019-05-18T05:08:46.727Z,16.12
2019-05-18T05:11:15.727Z,14.60
2019-05-18T05:13:44.499Z,15.93
2019-05-18T05:16:14.174Z,14.87
2019-05-18T05:18:42.958Z,16.15
2019-05-18T05:21:11.719Z,14.85
2019-05-18T05:23:40.422Z,14.93
2019-05-18T05:26:09.306Z,14.98
2019-05-18T05:28:38.315Z,15.15
2019-05-18T05:31:06.991Z,16.57
2019-05-18T05:33:35.966Z,15.50
2019-05-18T05:36:04.747Z,15.93
2019-05-18T05:38:33.439Z,16.02
2019-05-18T05:41:02.295Z,16.40
2019-05-18T05:43:31.073Z,14.90
2019-05-18T05:46:00.010Z,14.87
2019-05-18T05:48:28.878Z,13.60
2019-05-18T05:50:57.627Z,14.70
2019-05-18T05:53:26.618Z,14.10
2019-05-18T05:55:55.735Z,14.30
2019-05-18T05:58:24.457Z,13.65
2019-05-18T06:00:53.464Z,14.13
2019-05-18T06:03:22.306Z,15.20
2019-05-18T06:05:51.010Z,12.88
2019-05-18T06:08:19.751Z,12.15
2019-05-18T06:10:48.494Z,13.75
2019-05-18T06:13:17.435Z,12.50
2019-05-18T06:15:46.213Z,12.57
2019-05-18T06:18:15.983Z,11.12
2019-05-18T06:20:51.470Z,11.17
2019-05-18T06:23:15.477Z,10.32
2019-05-18T06:25:44.284Z,9.10
2019-05-18T06:28:13.411Z,9.13
2019-05-18T06:30:42.408Z,8.83
2019-05-18T06:33:11.179Z,8.38
2019-05-18T06:35:40.028Z,8.03
2019-05-18T06:38:08.903Z,7.20
2019-05-18T06:40:37.840Z,7.20
2019-05-18T06:43:06.842Z,6.80
2019-05-18T06:45:36.530Z,7.05
2019-05-18T06:48:05.838Z,6.22
2019-05-18T06:50:34.813Z,6.28
2019-05-18T06:53:04.239Z,6.25
2019-05-18T06:55:33.528Z,6.37
2019-05-18T06:58:03.312Z,5.55
2019-05-18T07:00:32.011Z,6.28
2019-05-18T07:03:00.891Z,5.25
2019-05-18T07:05:29.810Z,6.28
2019-05-18T07:07:58.512Z,6.50
2019-05-18T07:10:27.499Z,5.85
2019-05-18T07:12:56.287Z,6.08
2019-05-18T07:15:25.305Z,5.67
2019-05-18T07:17:54.528Z,6.40
2019-05-18T07:20:23.987Z,5.58
2019-05-18T07:22:52.854Z,5.90
2019-05-18T07:25:21.645Z,5.40
2019-05-18T07:27:50.454Z,6.20
2019-05-18T07:30:19.485Z,6.25
2019-05-18T07:32:48.316Z,6.15
2019-05-18T07:35:17.622Z,6.07
2019-05-18T07:37:46.650Z,5.33
2019-05-18T07:40:15.448Z,6.78
2019-05-18T07:42:44.723Z,6.00
2019-05-18T07:45:14.104Z,6.25
2019-05-18T07:47:42.996Z,5.78
2019-05-18T07:50:13.035Z,5.37
2019-05-18T07:52:42.066Z,6.10
2019-05-18T07:55:11.216Z,5.27
2019-05-18T07:57:39.927Z,4.60
2019-05-18T08:00:09.099Z,4.10
2019-05-18T08:02:37.819Z,4.87
2019-05-18T08:05:06.840Z,4.85
2019-05-18T08:07:35.660Z,4.80
2019-05-18T08:10:05.191Z,5.25
2019-05-18T08:12:33.955Z,5.63
2019-05-18T08:15:02.800Z,4.75
2019-05-18T08:17:31.963Z,5.67
2019-05-18T08:20:01.076Z,5.22
2019-05-18T08:22:31.234Z,5.10
2019-05-18T08:25:00.433Z,3.98
2019-05-18T08:27:29.246Z,4.70
2019-05-18T08:29:57.991Z,4.00
2019-05-18T08:32:27.225Z,3.70
2019-05-18T08:34:56.375Z,4.90
2019-05-18T08:37:25.345Z,5.05
2019-05-18T08:39:54.414Z,3.90
2019-05-18T08:42:23.383Z,4.60
2019-05-18T08:44:52.398Z,4.90
2019-05-18T08:47:21.161Z,4.87
2019-05-18T08:49:50.569Z,4.90
2019-05-18T08:52:19.548Z,4.40
2019-05-18T08:54:48.591Z,4.42
2019-05-18T08:57:17.709Z,4.80
2019-05-18T08:59:46.511Z,4.25
2019-05-18T09:02:15.359Z,4.60
2019-05-18T09:04:44.187Z,2.65
2019-05-18T09:07:12.950Z,4.62
2019-05-18T09:09:42.948Z,3.27
2019-05-18T09:12:12.254Z,4.87
2019-05-18T09:14:41.136Z,3.95
2019-05-18T09:17:10.184Z,4.42
2019-05-18T09:19:38.988Z,4.42
2019-05-18T09:22:21.245Z,4.90
2019-05-18T09:24:40.919Z,3.55
2019-05-18T09:27:10.103Z,3.73
2019-05-18T09:29:38.799Z,4.10
2019-05-18T09:32:07.742Z,4.30
2019-05-18T09:34:36.455Z,4.08
2019-05-18T09:37:13.151Z,4.20
2019-05-18T09:39:49.727Z,3.50
2019-05-18T09:42:22.900Z,3.62
2019-05-18T09:44:51.932Z,4.10
2019-05-18T09:47:32.046Z,3.20
2019-05-18T09:50:06.534Z,3.72
2019-05-18T09:52:44.678Z,3.83
2019-05-18T09:55:06.475Z,4.17
2019-05-18T09:57:35.513Z,3.02
2019-05-18T10:00:05.109Z,2.90
2019-05-18T10:02:34.167Z,3.33
2019-05-18T10:05:04.472Z,3.22
2019-05-18T10:07:33.363Z,3.65
2019-05-18T10:10:02.265Z,3.60
2019-05-18T10:12:31.184Z,3.92
2019-05-18T10:15:00.000Z,3.60
2019-05-18T10:17:28.971Z,3.77
2019-05-18T10:19:57.911Z,3.92
2019-05-18T10:22:26.596Z,3.13
2019-05-18T10:24:55.763Z,3.02
2019-05-18T10:27:25.517Z,3.33
2019-05-18T10:29:54.241Z,3.20
2019-05-18T10:32:23.429Z,2.45
2019-05-18T10:34:52.133Z,2.52
2019-05-18T10:37:20.899Z,3.27
2019-05-18T10:39:49.681Z,3.10
2019-05-18T10:42:18.872Z,3.10
2019-05-18T10:44:47.562Z,3.00
2019-05-18T10:47:17.289Z,2.85
2019-05-18T10:49:46.345Z,3.67
2019-05-18T10:52:15.471Z,2.55
2019-05-18T10:54:44.748Z,3.10
2019-05-18T10:57:13.638Z,3.30
2019-05-18T10:59:42.335Z,2.90
2019-05-18T11:02:11.127Z,3.58
2019-05-18T11:04:39.811Z,3.30
2019-05-18T11:07:08.804Z,3.55
2019-05-18T11:09:37.838Z,2.67
2019-05-18T11:12:06.540Z,3.70
2019-05-18T11:14:35.519Z,3.65
2019-05-18T11:17:04.420Z,3.77
2019-05-18T11:19:33.239Z,3.67
2019-05-18T11:22:03.171Z,4.10
2019-05-18T11:24:32.291Z,2.67
2019-05-18T11:27:00.986Z,3.77
2019-05-18T11:29:32.260Z,3.55
2019-05-18T11:32:01.104Z,3.25
2019-05-18T11:34:29.799Z,3.55
2019-05-18T11:36:58.581Z,2.33
2019-05-18T11:39:27.591Z,3.62
2019-05-18T11:41:56.295Z,2.95
2019-05-18T11:44:25.142Z,3.33
2019-05-18T11:46:54.313Z,3.08
2019-05-18T11:49:23.265Z,3.02
2019-05-18T11:51:52.376Z,2.65
2019-05-18T11:54:21.165Z,3.02
2019-05-18T11:56:49.876Z,2.75
2019-05-18T11:59:18.644Z,2.72
2019-05-18T12:01:47.464Z,2.35
2019-05-18T12:04:16.161Z,3.08
2019-05-18T12:06:44.990Z,2.75
2019-05-18T12:09:13.746Z,2.67
2019-05-18T12:11:42.539Z,2.52
2019-05-18T12:14:11.318Z,2.87
2019-05-18T12:16:40.364Z,2.40
2019-05-18T12:19:09.293Z,2.72
2019-05-18T12:21:38.209Z,2.65
2019-05-18T12:24:15.246Z,2.75
2019-05-18T12:26:37.564Z,2.67
2019-05-18T12:29:06.569Z,2.60
2019-05-18T12:31:36.217Z,3.02
2019-05-18T12:34:04.995Z,2.55
2019-05-18T12:36:33.771Z,2.08
2019-05-18T12:39:02.804Z,2.40
2019-05-18T12:41:31.615Z,2.20
2019-05-18T12:44:00.643Z,2.27
2019-05-18T12:46:29.784Z,2.30
2019-05-18T12:48:58.701Z,2.20
2019-05-18T12:51:27.470Z,1.77
2019-05-18T12:53:56.313Z,1.57
2019-05-18T12:56:25.186Z,2.20
2019-05-18T12:58:54.100Z,1.57
2019-05-18T13:01:24.406Z,1.87
2019-05-18T13:03:53.187Z,2.20
2019-05-18T13:06:21.986Z,1.80
2019-05-18T13:08:50.751Z,1.85
2019-05-18T13:11:19.800Z,1.87
2019-05-18T13:13:48.543Z,1.70
2019-05-18T13:16:17.906Z,1.70
2019-05-18T13:18:46.885Z,2.00
2019-05-18T13:21:15.850Z,2.10
2019-05-18T13:23:44.575Z,2.27
2019-05-18T13:26:13.305Z,1.75
2019-05-18T13:28:42.107Z,1.93
2019-05-18T13:31:10.970Z,1.57
2019-05-18T13:33:40.340Z,1.62
2019-05-18T13:36:09.111Z,1.60
2019-05-18T13:38:38.190Z,2.22
2019-05-18T13:41:07.131Z,2.20
2019-05-18T13:43:36.319Z,1.65
2019-05-18T13:46:05.409Z,1.80
2019-05-18T13:48:34.118Z,1.70
2019-05-18T13:51:02.847Z,1.90
2019-05-18T13:53:31.702Z,1.57
2019-05-18T13:56:00.733Z,1.75
2019-05-18T13:58:29.450Z,2.35
2019-05-18T14:00:58.442Z,1.65
2019-05-18T14:03:27.278Z,1.77
2019-05-18T14:05:55.966Z,1.60
2019-05-18T14:08:24.908Z,1.70
2019-05-18T14:10:53.692Z,2.02
2019-05-18T14:13:22.785Z,1.77
2019-05-18T14:15:51.752Z,1.80
2019-05-18T14:18:20.717Z,2.08
2019-05-18T14:20:49.639Z,1.85
2019-05-18T14:23:19.027Z,1.90
2019-05-18T14:25:47.881Z,1.90
2019-05-18T14:28:16.607Z,1.75
2019-05-18T14:30:45.512Z,1.95
2019-05-18T14:33:14.287Z,1.92
2019-05-18T14:35:43.361Z,1.55
2019-05-18T14:38:12.203Z,2.00
2019-05-18T14:40:40.981Z,1.85
2019-05-18T14:43:09.969Z,1.75
2019-05-18T14:45:38.822Z,1.60
2019-05-18T14:48:07.931Z,2.08
2019-05-18T14:50:36.727Z,1.65
2019-05-18T14:53:05.672Z,1.25
2019-05-18T14:55:34.439Z,1.40
2019-05-18T14:58:03.406Z,1.70
2019-05-18T15:00:32.421Z,1.72
2019-05-18T15:03:01.250Z,2.10
2019-05-18T15:05:30.318Z,1.80
2019-05-18T15:07:59.115Z,1.80
2019-05-18T15:10:27.835Z,1.60
2019-05-18T15:12:56.621Z,1.65
2019-05-18T15:15:25.937Z,1.52
2019-05-18T15:17:54.612Z,1.55
2019-05-18T15:20:23.515Z,1.65
2019-05-18T15:22:52.510Z,1.63
2019-05-18T15:25:21.222Z,1.50
2019-05-18T15:27:50.126Z,1.57
2019-05-18T15:30:22.562Z,1.57
2019-05-18T15:32:51.747Z,1.82
2019-05-18T15:35:20.644Z,1.80
2019-05-18T15:37:49.789Z,1.72
2019-05-18T15:40:18.765Z,1.50
2019-05-18T15:42:47.611Z,1.60
2019-05-18T15:45:17.743Z,1.60
2019-05-18T15:47:46.697Z,1.87
2019-05-18T15:50:16.799Z,1.50
2019-05-18T15:52:45.770Z,1.65
2019-05-18T15:55:14.868Z,1.40
2019-05-18T15:57:43.621Z,1.70
2019-05-18T16:00:13.591Z,1.63
2019-05-18T16:02:42.836Z,1.70
2019-05-18T16:05:13.609Z,1.90
2019-05-18T16:07:42.779Z,1.57
2019-05-18T16:10:11.884Z,1.55
2019-05-18T16:12:40.631Z,1.55
2019-05-18T16:15:10.127Z,1.32
2019-05-18T16:17:40.245Z,1.65
2019-05-18T16:20:09.787Z,1.50
2019-05-18T16:22:38.603Z,1.70
2019-05-18T16:25:07.729Z,1.60
2019-05-18T16:27:36.531Z,1.90
2019-05-18T16:30:05.898Z,1.45
2019-05-18T16:32:34.836Z,1.87
2019-05-18T16:35:03.725Z,1.72
2019-05-18T16:37:32.531Z,1.60
2019-05-18T16:40:01.432Z,2.30
2019-05-18T16:42:30.474Z,1.50
2019-05-18T16:44:59.269Z,1.40
2019-05-18T16:47:28.326Z,1.60
2019-05-18T16:49:58.861Z,1.65
2019-05-18T16:52:27.631Z,1.40
2019-05-18T16:54:56.330Z,1.67
2019-05-18T16:57:25.296Z,1.52
2019-05-18T16:59:54.167Z,1.47
2019-05-18T17:02:31.205Z,1.98
2019-05-18T17:04:53.789Z,1.87
2019-05-18T17:07:22.686Z,1.80
2019-05-18T17:09:51.578Z,2.00
2019-05-18T17:12:20.798Z,1.90
2019-05-18T17:14:49.820Z,2.00
2019-05-18T17:17:18.510Z,1.65
2019-05-18T17:19:47.308Z,2.10
2019-05-18T17:22:16.355Z,2.15
2019-05-18T17:24:45.176Z,1.77
2019-05-18T17:27:14.144Z,2.00
2019-05-18T17:29:43.344Z,1.62
2019-05-18T17:32:13.115Z,1.62
2019-05-18T17:34:41.889Z,1.70
2019-05-18T17:37:10.864Z,1.72
2019-05-18T17:39:39.956Z,1.77
2019-05-18T17:42:09.070Z,1.65
2019-05-18T17:44:37.979Z,1.80
2019-05-18T17:47:07.011Z,2.37
2019-05-18T17:49:35.785Z,1.75
2019-05-18T17:52:06.251Z,2.03
2019-05-18T17:54:35.228Z,1.72
2019-05-18T17:57:08.493Z,2.27
2019-05-18T17:59:34.687Z,2.42
2019-05-18T18:02:03.405Z,2.08
2019-05-18T18:04:32.097Z,2.00
2019-05-18T18:07:00.946Z,1.92
2019-05-18T18:09:29.638Z,2.22
2019-05-18T18:11:58.306Z,2.40
2019-05-18T18:14:27.515Z,2.42
2019-05-18T18:16:56.282Z,2.20
2019-05-18T18:19:25.252Z,2.05
2019-05-18T18:21:54.039Z,2.22
2019-05-18T18:24:22.707Z,2.30
2019-05-18T18:26:51.462Z,2.58
2019-05-18T18:29:20.177Z,2.75
2019-05-18T18:31:48.964Z,2.30
2019-05-18T18:34:17.684Z,2.60
2019-05-18T18:36:46.474Z,2.92
2019-05-18T18:39:15.469Z,2.42
2019-05-18T18:41:44.189Z,2.70
2019-05-18T18:44:13.247Z,3.77
2019-05-18T18:46:41.998Z,3.70
2019-05-18T18:49:10.867Z,3.65
2019-05-18T18:51:39.863Z,3.33
2019-05-18T18:54:08.657Z,3.47
2019-05-18T18:56:37.802Z,3.42
2019-05-18T18:59:07.310Z,2.98
2019-05-18T19:01:36.007Z,3.42
2019-05-18T19:04:04.780Z,3.33
2019-05-18T19:06:33.671Z,3.12
2019-05-18T19:09:03.017Z,3.12
2019-05-18T19:11:32.053Z,3.40
2019-05-18T19:14:00.894Z,3.70
2019-05-18T19:16:29.619Z,4.08
2019-05-18T19:18:58.410Z,3.70
2019-05-18T19:21:27.600Z,3.98
2019-05-18T19:23:56.366Z,3.72
2019-05-18T19:26:25.181Z,3.58
2019-05-18T19:28:54.341Z,4.22
2019-05-18T19:31:23.250Z,4.40
2019-05-18T19:33:51.981Z,4.15
2019-05-18T19:36:20.909Z,4.22
2019-05-18T19:38:49.806Z,4.30
2019-05-18T19:41:18.725Z,4.53
2019-05-18T19:43:47.862Z,3.72
2019-05-18T19:46:16.807Z,4.85
2019-05-18T19:48:45.505Z,5.00
2019-05-18T19:51:16.068Z,5.27
2019-05-18T19:53:44.952Z,4.20
2019-05-18T19:56:13.707Z,4.97
2019-05-18T19:58:42.705Z,4.78
2019-05-18T20:01:11.668Z,4.53
2019-05-18T20:03:40.484Z,5.15
2019-05-18T20:06:09.588Z,4.92
2019-05-18T20:08:38.328Z,5.60
2019-05-18T20:11:07.580Z,6.37
2019-05-18T20:13:36.354Z,6.60
2019-05-18T20:16:05.135Z,6.67
2019-05-18T20:18:33.825Z,6.58
2019-05-18T20:21:02.777Z,7.05
2019-05-18T20:23:31.463Z,7.62
2019-05-18T20:26:00.399Z,6.67
2019-05-18T20:28:29.461Z,7.00
2019-05-18T20:30:58.139Z,8.88
2019-05-18T20:33:26.806Z,7.97
2019-05-18T20:35:55.767Z,7.60
2019-05-18T20:38:24.579Z,7.83
2019-05-18T20:40:53.572Z,7.42
2019-05-18T20:43:22.329Z,8.00
2019-05-18T20:45:51.035Z,8.15
2019-05-18T20:48:20.164Z,7.97
2019-05-18T20:50:48.954Z,7.78
2019-05-18T20:53:17.704Z,8.70
2019-05-18T20:55:46.679Z,8.13
2019-05-18T20:58:15.460Z,8.20
2019-05-18T21:00:44.201Z,8.35
2019-05-18T21:03:12.946Z,8.73
2019-05-18T21:05:41.734Z,8.15
2019-05-18T21:08:11.012Z,8.63
2019-05-18T21:10:39.723Z,8.13
2019-05-18T21:13:08.458Z,8.25
2019-05-18T21:15:37.143Z,8.85
2019-05-18T21:18:05.918Z,8.63
2019-05-18T21:20:34.903Z,7.75
2019-05-18T21:23:03.659Z,9.03
2019-05-18T21:25:32.950Z,8.85
2019-05-18T21:28:02.042Z,8.80
2019-05-18T21:30:30.822Z,8.28
2019-05-18T21:32:59.731Z,8.65
2019-05-18T21:35:28.538Z,9.38
2019-05-18T21:37:57.444Z,8.53
2019-05-18T21:40:26.827Z,8.73
2019-05-18T21:42:55.540Z,8.75
2019-05-18T21:45:24.203Z,8.65
2019-05-18T21:47:52.967Z,8.43
2019-05-18T21:50:21.914Z,8.60
2019-05-18T21:52:51.193Z,9.75
2019-05-18T21:55:19.943Z,8.38
2019-05-18T21:57:48.931Z,9.80
2019-05-18T22:00:19.213Z,9.40
2019-05-18T22:02:49.612Z,8.78
2019-05-18T22:05:19.223Z,8.53
2019-05-18T22:07:48.094Z,9.55
2019-05-18T22:10:25.550Z,8.88
2019-05-18T22:12:48.066Z,8.33
2019-05-18T22:15:17.078Z,9.05
2019-05-18T22:18:04.017Z,8.85
2019-05-18T22:20:34.021Z,7.73
2019-05-18T22:23:03.140Z,9.63
2019-05-18T22:25:32.239Z,8.65
2019-05-18T22:28:00.919Z,8.33
2019-05-18T22:30:29.670Z,8.75
2019-05-18T22:32:58.561Z,8.13
2019-05-18T22:35:27.278Z,8.75
2019-05-18T22:37:56.875Z,9.62
2019-05-18T22:40:25.660Z,8.77
2019-05-18T22:42:54.403Z,9.40
2019-05-18T22:45:23.107Z,10.23
2019-05-18T22:47:52.076Z,9.35
2019-05-18T22:50:21.381Z,10.35
2019-05-18T22:52:50.596Z,9.58
2019-05-18T22:55:19.461Z,9.35
2019-05-18T22:57:48.242Z,9.48
2019-05-18T23:00:17.445Z,10.35
2019-05-18T23:02:46.641Z,9.88
2019-05-18T23:05:15.458Z,10.32
2019-05-18T23:07:44.539Z,10.03
2019-05-18T23:10:13.451Z,10.10
2019-05-18T23:12:42.333Z,9.55
2019-05-18T23:15:11.969Z,10.40
2019-05-18T23:17:41.508Z,9.80
2019-05-18T23:20:11.537Z,9.98
2019-05-18T23:22:40.255Z,9.63
2019-05-18T23:25:09.501Z,10.08
2019-05-18T23:27:38.245Z,9.73
2019-05-18T23:30:07.594Z,10.30
2019-05-18T23:32:36.846Z,10.08
2019-05-18T23:35:06.218Z,9.95
2019-05-18T23:37:35.203Z,10.43
2019-05-18T23:40:04.059Z,9.98
2019-05-18T23:42:33.352Z,10.55
2019-05-18T23:45:02.957Z,9.98
2019-05-18T23:47:31.754Z,9.75
2019-05-18T23:50:00.985Z,10.45
2019-05-18T23:52:29.866Z,9.43
2019-05-18T23:54:59.793Z,10.32
2019-05-18T23:57:28.749Z,10.35
2019-05-18T23:59:58.601Z,10.05
